sensor_id;sensor_type;location;lat;lon;timestamp;P1;durP1;ratioP1;P2;durP2;ratioP2
37411;SDS011;23278;52.110;6.050;2023-10-09T00:00:15;14.38;;;9.32;;
37411;SDS011;23278;52.110;6.050;2023-10-09T00:03:00;21.20;;;13.18;;
37411;SDS011;23278;52.110;6.050;2023-10-09T00:05:30;16.42;;;11.65;;
37411;SDS011;23278;52.110;6.050;2023-10-09T00:08:11;17.58;;;11.57;;
37411;SDS011;23278;52.110;6.050;2023-10-09T00:10:42;16.15;;;12.10;;
37411;SDS011;23278;52.110;6.050;2023-10-09T00:15:40;13.48;;;9.05;;
37411;SDS011;23278;52.110;6.050;2023-10-09T00:18:07;10.40;;;7.55;;
37411;SDS011;23278;52.110;6.050;2023-10-09T00:20:40;12.93;;;8.15;;
37411;SDS011;23278;52.110;6.050;2023-10-09T00:23:08;16.33;;;8.47;;
37411;SDS011;23278;52.110;6.050;2023-10-09T00:25:40;13.30;;;8.75;;
37411;SDS011;23278;52.110;6.050;2023-10-09T00:28:16;10.82;;;7.88;;
37411;SDS011;23278;52.110;6.050;2023-10-09T00:30:46;12.77;;;8.25;;
37411;SDS011;23278;52.110;6.050;2023-10-09T00:33:13;13.18;;;7.72;;
37411;SDS011;23278;52.110;6.050;2023-10-09T00:35:40;9.75;;;7.10;;
37411;SDS011;23278;52.110;6.050;2023-10-09T00:38:09;12.18;;;8.50;;
37411;SDS011;23278;52.110;6.050;2023-10-09T00:40:48;8.88;;;7.68;;
37411;SDS011;23278;52.110;6.050;2023-10-09T00:43:22;10.85;;;7.15;;
37411;SDS011;23278;52.110;6.050;2023-10-09T00:45:55;9.27;;;7.05;;
37411;SDS011;23278;52.110;6.050;2023-10-09T00:48:35;10.35;;;7.28;;
37411;SDS011;23278;52.110;6.050;2023-10-09T00:51:09;11.02;;;7.60;;
37411;SDS011;23278;52.110;6.050;2023-10-09T00:53:51;13.43;;;8.07;;
37411;SDS011;23278;52.110;6.050;2023-10-09T00:56:44;12.02;;;7.47;;
37411;SDS011;23278;52.110;6.050;2023-10-09T00:59:17;11.35;;;7.45;;
37411;SDS011;23278;52.110;6.050;2023-10-09T01:01:46;10.63;;;7.40;;
37411;SDS011;23278;52.110;6.050;2023-10-09T01:04:29;13.05;;;7.25;;
37411;SDS011;23278;52.110;6.050;2023-10-09T01:07:02;14.38;;;8.50;;
37411;SDS011;23278;52.110;6.050;2023-10-09T01:09:41;8.80;;;6.30;;
37411;SDS011;23278;52.110;6.050;2023-10-09T01:12:09;9.88;;;7.15;;
37411;SDS011;23278;52.110;6.050;2023-10-09T01:14:45;16.42;;;10.35;;
37411;SDS011;23278;52.110;6.050;2023-10-09T01:17:18;15.55;;;9.35;;
37411;SDS011;23278;52.110;6.050;2023-10-09T01:19:55;20.85;;;10.25;;
37411;SDS011;23278;52.110;6.050;2023-10-09T01:22:23;15.55;;;9.38;;
37411;SDS011;23278;52.110;6.050;2023-10-09T01:24:49;14.70;;;8.68;;
37411;SDS011;23278;52.110;6.050;2023-10-09T01:27:16;17.05;;;9.70;;
37411;SDS011;23278;52.110;6.050;2023-10-09T01:29:42;13.95;;;9.60;;
37411;SDS011;23278;52.110;6.050;2023-10-09T01:32:11;17.25;;;9.95;;
37411;SDS011;23278;52.110;6.050;2023-10-09T01:34:44;18.48;;;10.35;;
37411;SDS011;23278;52.110;6.050;2023-10-09T01:37:14;17.83;;;10.82;;
37411;SDS011;23278;52.110;6.050;2023-10-09T01:39:53;20.60;;;11.80;;
37411;SDS011;23278;52.110;6.050;2023-10-09T01:42:23;14.90;;;10.30;;
37411;SDS011;23278;52.110;6.050;2023-10-09T01:44:55;19.88;;;12.27;;
37411;SDS011;23278;52.110;6.050;2023-10-09T01:47:23;14.27;;;10.38;;
37411;SDS011;23278;52.110;6.050;2023-10-09T01:49:51;16.20;;;10.18;;
37411;SDS011;23278;52.110;6.050;2023-10-09T01:52:19;17.00;;;11.10;;
37411;SDS011;23278;52.110;6.050;2023-10-09T01:54:46;13.95;;;10.13;;
37411;SDS011;23278;52.110;6.050;2023-10-09T01:57:16;19.58;;;9.43;;
37411;SDS011;23278;52.110;6.050;2023-10-09T01:59:48;15.98;;;9.80;;
37411;SDS011;23278;52.110;6.050;2023-10-09T02:02:15;12.30;;;9.00;;
37411;SDS011;23278;52.110;6.050;2023-10-09T02:04:52;13.13;;;8.90;;
37411;SDS011;23278;52.110;6.050;2023-10-09T02:07:35;14.77;;;9.18;;
37411;SDS011;23278;52.110;6.050;2023-10-09T02:10:17;16.15;;;10.38;;
37411;SDS011;23278;52.110;6.050;2023-10-09T02:13:01;15.50;;;9.20;;
37411;SDS011;23278;52.110;6.050;2023-10-09T02:15:32;13.80;;;9.43;;
37411;SDS011;23278;52.110;6.050;2023-10-09T02:18:09;11.98;;;9.75;;
37411;SDS011;23278;52.110;6.050;2023-10-09T02:23:39;15.48;;;9.95;;
37411;SDS011;23278;52.110;6.050;2023-10-09T02:26:22;11.63;;;8.40;;
37411;SDS011;23278;52.110;6.050;2023-10-09T02:28:52;10.15;;;7.55;;
37411;SDS011;23278;52.110;6.050;2023-10-09T02:31:26;11.23;;;8.35;;
37411;SDS011;23278;52.110;6.050;2023-10-09T02:34:00;12.38;;;8.50;;
37411;SDS011;23278;52.110;6.050;2023-10-09T02:36:30;13.25;;;8.52;;
37411;SDS011;23278;52.110;6.050;2023-10-09T02:38:56;13.48;;;9.93;;
37411;SDS011;23278;52.110;6.050;2023-10-09T02:41:22;8.15;;;6.85;;
37411;SDS011;23278;52.110;6.050;2023-10-09T02:43:53;9.65;;;7.93;;
37411;SDS011;23278;52.110;6.050;2023-10-09T02:46:21;16.70;;;8.90;;
37411;SDS011;23278;52.110;6.050;2023-10-09T02:48:55;12.27;;;9.10;;
37411;SDS011;23278;52.110;6.050;2023-10-09T02:51:23;13.18;;;8.98;;
37411;SDS011;23278;52.110;6.050;2023-10-09T02:53:55;9.90;;;7.15;;
37411;SDS011;23278;52.110;6.050;2023-10-09T02:56:23;11.48;;;7.35;;
37411;SDS011;23278;52.110;6.050;2023-10-09T02:58:50;10.70;;;7.00;;
37411;SDS011;23278;52.110;6.050;2023-10-09T03:01:16;14.55;;;8.80;;
37411;SDS011;23278;52.110;6.050;2023-10-09T03:03:42;12.52;;;8.13;;
37411;SDS011;23278;52.110;6.050;2023-10-09T03:06:13;12.88;;;8.60;;
37411;SDS011;23278;52.110;6.050;2023-10-09T03:08:44;11.85;;;9.05;;
37411;SDS011;23278;52.110;6.050;2023-10-09T03:11:13;15.57;;;9.75;;
37411;SDS011;23278;52.110;6.050;2023-10-09T03:13:42;15.98;;;8.50;;
37411;SDS011;23278;52.110;6.050;2023-10-09T03:16:10;16.13;;;8.85;;
37411;SDS011;23278;52.110;6.050;2023-10-09T03:18:45;16.98;;;9.25;;
37411;SDS011;23278;52.110;6.050;2023-10-09T03:21:16;13.35;;;7.93;;
37411;SDS011;23278;52.110;6.050;2023-10-09T03:23:46;10.63;;;8.45;;
37411;SDS011;23278;52.110;6.050;2023-10-09T03:26:16;10.27;;;8.00;;
37411;SDS011;23278;52.110;6.050;2023-10-09T03:28:43;11.57;;;8.38;;
37411;SDS011;23278;52.110;6.050;2023-10-09T03:31:11;10.68;;;7.88;;
37411;SDS011;23278;52.110;6.050;2023-10-09T03:33:37;13.45;;;8.68;;
37411;SDS011;23278;52.110;6.050;2023-10-09T03:36:03;13.00;;;7.93;;
37411;SDS011;23278;52.110;6.050;2023-10-09T03:38:38;11.60;;;8.27;;
37411;SDS011;23278;52.110;6.050;2023-10-09T03:41:07;17.40;;;9.77;;
37411;SDS011;23278;52.110;6.050;2023-10-09T03:43:37;12.80;;;8.68;;
37411;SDS011;23278;52.110;6.050;2023-10-09T03:46:05;13.63;;;8.52;;
37411;SDS011;23278;52.110;6.050;2023-10-09T03:48:38;12.90;;;8.13;;
37411;SDS011;23278;52.110;6.050;2023-10-09T03:51:04;13.68;;;8.70;;
37411;SDS011;23278;52.110;6.050;2023-10-09T03:53:41;11.73;;;7.95;;
37411;SDS011;23278;52.110;6.050;2023-10-09T03:56:08;9.07;;;6.90;;
37411;SDS011;23278;52.110;6.050;2023-10-09T03:58:40;14.23;;;8.27;;
37411;SDS011;23278;52.110;6.050;2023-10-09T04:01:13;14.15;;;8.35;;
37411;SDS011;23278;52.110;6.050;2023-10-09T04:03:54;14.13;;;7.43;;
37411;SDS011;23278;52.110;6.050;2023-10-09T04:06:26;9.60;;;7.55;;
37411;SDS011;23278;52.110;6.050;2023-10-09T04:09:09;15.65;;;9.23;;
37411;SDS011;23278;52.110;6.050;2023-10-09T04:11:53;11.75;;;7.88;;
37411;SDS011;23278;52.110;6.050;2023-10-09T04:14:35;12.10;;;8.63;;
37411;SDS011;23278;52.110;6.050;2023-10-09T04:17:09;10.38;;;7.18;;
37411;SDS011;23278;52.110;6.050;2023-10-09T04:19:50;10.98;;;7.53;;
37411;SDS011;23278;52.110;6.050;2023-10-09T04:22:45;13.20;;;8.80;;
37411;SDS011;23278;52.110;6.050;2023-10-09T04:25:25;11.07;;;7.95;;
37411;SDS011;23278;52.110;6.050;2023-10-09T04:27:55;12.00;;;9.63;;
37411;SDS011;23278;52.110;6.050;2023-10-09T04:30:37;11.43;;;8.02;;
37411;SDS011;23278;52.110;6.050;2023-10-09T04:33:11;10.52;;;8.50;;
37411;SDS011;23278;52.110;6.050;2023-10-09T04:36:01;15.93;;;10.88;;
37411;SDS011;23278;52.110;6.050;2023-10-09T04:38:46;12.65;;;9.43;;
37411;SDS011;23278;52.110;6.050;2023-10-09T04:43:53;10.90;;;8.23;;
37411;SDS011;23278;52.110;6.050;2023-10-09T04:46:30;13.20;;;10.10;;
37411;SDS011;23278;52.110;6.050;2023-10-09T04:49:12;11.95;;;8.82;;
37411;SDS011;23278;52.110;6.050;2023-10-09T04:51:59;14.63;;;10.43;;
37411;SDS011;23278;52.110;6.050;2023-10-09T04:54:43;14.63;;;9.82;;
37411;SDS011;23278;52.110;6.050;2023-10-09T04:57:44;13.10;;;9.40;;
37411;SDS011;23278;52.110;6.050;2023-10-09T05:00:33;15.13;;;9.10;;
37411;SDS011;23278;52.110;6.050;2023-10-09T05:03:00;14.60;;;10.00;;
37411;SDS011;23278;52.110;6.050;2023-10-09T05:05:38;17.00;;;11.30;;
37411;SDS011;23278;52.110;6.050;2023-10-09T05:08:12;12.10;;;9.38;;
37411;SDS011;23278;52.110;6.050;2023-10-09T05:10:50;15.07;;;11.40;;
37411;SDS011;23278;52.110;6.050;2023-10-09T05:13:41;13.43;;;9.48;;
37411;SDS011;23278;52.110;6.050;2023-10-09T05:18:41;12.63;;;9.30;;
37411;SDS011;23278;52.110;6.050;2023-10-09T05:21:07;11.52;;;8.82;;
37411;SDS011;23278;52.110;6.050;2023-10-09T05:26:17;11.05;;;6.82;;
37411;SDS011;23278;52.110;6.050;2023-10-09T05:29:03;10.82;;;5.82;;
37411;SDS011;23278;52.110;6.050;2023-10-09T05:34:21;11.82;;;6.30;;
37411;SDS011;23278;52.110;6.050;2023-10-09T05:36:48;11.20;;;7.05;;
37411;SDS011;23278;52.110;6.050;2023-10-09T05:39:15;8.63;;;6.38;;
37411;SDS011;23278;52.110;6.050;2023-10-09T05:41:55;8.52;;;6.53;;
37411;SDS011;23278;52.110;6.050;2023-10-09T05:44:33;6.72;;;5.97;;
37411;SDS011;23278;52.110;6.050;2023-10-09T05:47:17;8.82;;;6.07;;
37411;SDS011;23278;52.110;6.050;2023-10-09T05:50:13;10.02;;;6.63;;
37411;SDS011;23278;52.110;6.050;2023-10-09T05:52:39;9.05;;;6.57;;
37411;SDS011;23278;52.110;6.050;2023-10-09T05:55:05;10.70;;;6.75;;
37411;SDS011;23278;52.110;6.050;2023-10-09T05:57:58;12.27;;;7.65;;
37411;SDS011;23278;52.110;6.050;2023-10-09T06:00:43;10.52;;;6.35;;
37411;SDS011;23278;52.110;6.050;2023-10-09T06:03:27;10.55;;;5.82;;
37411;SDS011;23278;52.110;6.050;2023-10-09T06:06:13;8.15;;;5.95;;
37411;SDS011;23278;52.110;6.050;2023-10-09T06:09:02;12.13;;;7.43;;
37411;SDS011;23278;52.110;6.050;2023-10-09T06:11:41;12.10;;;6.88;;
37411;SDS011;23278;52.110;6.050;2023-10-09T06:14:18;9.90;;;7.22;;
37411;SDS011;23278;52.110;6.050;2023-10-09T06:17:10;7.97;;;5.70;;
37411;SDS011;23278;52.110;6.050;2023-10-09T06:19:36;10.30;;;6.38;;
37411;SDS011;23278;52.110;6.050;2023-10-09T06:22:08;10.00;;;6.43;;
37411;SDS011;23278;52.110;6.050;2023-10-09T06:24:38;9.40;;;7.05;;
37411;SDS011;23278;52.110;6.050;2023-10-09T06:27:20;10.32;;;6.78;;
37411;SDS011;23278;52.110;6.050;2023-10-09T06:29:52;8.45;;;6.97;;
37411;SDS011;23278;52.110;6.050;2023-10-09T06:32:38;10.20;;;6.75;;
37411;SDS011;23278;52.110;6.050;2023-10-09T06:35:14;12.65;;;6.15;;
37411;SDS011;23278;52.110;6.050;2023-10-09T06:37:56;8.60;;;6.30;;
37411;SDS011;23278;52.110;6.050;2023-10-09T06:40:29;11.75;;;5.65;;
37411;SDS011;23278;52.110;6.050;2023-10-09T06:43:02;8.38;;;5.63;;
37411;SDS011;23278;52.110;6.050;2023-10-09T06:45:45;7.65;;;4.30;;
37411;SDS011;23278;52.110;6.050;2023-10-09T06:48:12;5.78;;;4.97;;
37411;SDS011;23278;52.110;6.050;2023-10-09T06:50:57;11.18;;;6.32;;
37411;SDS011;23278;52.110;6.050;2023-10-09T06:53:46;7.43;;;5.45;;
37411;SDS011;23278;52.110;6.050;2023-10-09T06:56:32;10.13;;;6.88;;
37411;SDS011;23278;52.110;6.050;2023-10-09T06:58:58;9.15;;;6.20;;
37411;SDS011;23278;52.110;6.050;2023-10-09T07:01:47;8.20;;;5.15;;
37411;SDS011;23278;52.110;6.050;2023-10-09T07:04:32;7.90;;;4.72;;
37411;SDS011;23278;52.110;6.050;2023-10-09T07:06:59;8.27;;;5.13;;
37411;SDS011;23278;52.110;6.050;2023-10-09T07:09:27;9.07;;;5.72;;
37411;SDS011;23278;52.110;6.050;2023-10-09T07:12:10;7.63;;;5.80;;
37411;SDS011;23278;52.110;6.050;2023-10-09T07:14:46;10.05;;;5.97;;
37411;SDS011;23278;52.110;6.050;2023-10-09T07:17:12;8.57;;;6.32;;
37411;SDS011;23278;52.110;6.050;2023-10-09T07:19:56;11.80;;;5.95;;
37411;SDS011;23278;52.110;6.050;2023-10-09T07:22:37;10.68;;;6.53;;
37411;SDS011;23278;52.110;6.050;2023-10-09T07:25:19;14.05;;;7.18;;
37411;SDS011;23278;52.110;6.050;2023-10-09T07:28:04;11.05;;;6.75;;
37411;SDS011;23278;52.110;6.050;2023-10-09T07:30:43;11.60;;;7.00;;
37411;SDS011;23278;52.110;6.050;2023-10-09T07:33:11;12.88;;;6.65;;
37411;SDS011;23278;52.110;6.050;2023-10-09T07:35:39;13.68;;;7.63;;
37411;SDS011;23278;52.110;6.050;2023-10-09T07:40:37;9.55;;;6.65;;
37411;SDS011;23278;52.110;6.050;2023-10-09T07:43:38;9.10;;;5.93;;
37411;SDS011;23278;52.110;6.050;2023-10-09T07:46:05;13.30;;;6.50;;
37411;SDS011;23278;52.110;6.050;2023-10-09T07:48:50;9.13;;;6.15;;
37411;SDS011;23278;52.110;6.050;2023-10-09T07:51:19;11.82;;;5.90;;
37411;SDS011;23278;52.110;6.050;2023-10-09T07:53:51;11.55;;;5.47;;
37411;SDS011;23278;52.110;6.050;2023-10-09T07:56:35;9.73;;;4.53;;
37411;SDS011;23278;52.110;6.050;2023-10-09T07:59:07;8.88;;;5.90;;
37411;SDS011;23278;52.110;6.050;2023-10-09T08:01:46;8.95;;;6.15;;
37411;SDS011;23278;52.110;6.050;2023-10-09T08:04:25;7.22;;;4.57;;
37411;SDS011;23278;52.110;6.050;2023-10-09T08:07:05;11.25;;;5.93;;
37411;SDS011;23278;52.110;6.050;2023-10-09T08:09:32;7.80;;;5.18;;
37411;SDS011;23278;52.110;6.050;2023-10-09T08:12:34;9.73;;;4.82;;
37411;SDS011;23278;52.110;6.050;2023-10-09T08:15:16;6.70;;;4.85;;
37411;SDS011;23278;52.110;6.050;2023-10-09T08:17:50;10.85;;;5.40;;
37411;SDS011;23278;52.110;6.050;2023-10-09T08:20:24;12.25;;;6.10;;
37411;SDS011;23278;52.110;6.050;2023-10-09T08:22:52;11.55;;;5.70;;
37411;SDS011;23278;52.110;6.050;2023-10-09T08:25:24;9.80;;;5.45;;
37411;SDS011;23278;52.110;6.050;2023-10-09T08:27:55;13.55;;;5.45;;
37411;SDS011;23278;52.110;6.050;2023-10-09T08:30:26;6.20;;;4.57;;
37411;SDS011;23278;52.110;6.050;2023-10-09T08:32:52;6.53;;;4.88;;
37411;SDS011;23278;52.110;6.050;2023-10-09T08:35:50;6.70;;;4.20;;
37411;SDS011;23278;52.110;6.050;2023-10-09T08:38:21;6.93;;;5.30;;
37411;SDS011;23278;52.110;6.050;2023-10-09T08:40:50;10.68;;;6.38;;
37411;SDS011;23278;52.110;6.050;2023-10-09T08:43:23;8.77;;;5.95;;
37411;SDS011;23278;52.110;6.050;2023-10-09T08:45:52;10.48;;;5.95;;
37411;SDS011;23278;52.110;6.050;2023-10-09T08:48:19;12.38;;;6.75;;
37411;SDS011;23278;52.110;6.050;2023-10-09T08:50:52;15.80;;;7.13;;
37411;SDS011;23278;52.110;6.050;2023-10-09T08:53:21;11.07;;;6.65;;
37411;SDS011;23278;52.110;6.050;2023-10-09T08:55:49;9.95;;;6.43;;
37411;SDS011;23278;52.110;6.050;2023-10-09T08:58:16;12.90;;;6.53;;
37411;SDS011;23278;52.110;6.050;2023-10-09T09:00:50;12.48;;;6.32;;
37411;SDS011;23278;52.110;6.050;2023-10-09T09:03:18;11.18;;;7.57;;
37411;SDS011;23278;52.110;6.050;2023-10-09T09:05:47;11.75;;;7.45;;
37411;SDS011;23278;52.110;6.050;2023-10-09T09:08:25;10.57;;;6.43;;
37411;SDS011;23278;52.110;6.050;2023-10-09T09:10:57;10.95;;;6.40;;
37411;SDS011;23278;52.110;6.050;2023-10-09T09:16:44;16.50;;;6.75;;
37411;SDS011;23278;52.110;6.050;2023-10-09T09:19:13;13.48;;;6.28;;
37411;SDS011;23278;52.110;6.050;2023-10-09T09:21:47;11.82;;;5.82;;
37411;SDS011;23278;52.110;6.050;2023-10-09T09:24:19;11.25;;;6.78;;
37411;SDS011;23278;52.110;6.050;2023-10-09T09:26:49;12.30;;;6.25;;
37411;SDS011;23278;52.110;6.050;2023-10-09T09:29:37;12.90;;;6.28;;
37411;SDS011;23278;52.110;6.050;2023-10-09T09:32:08;8.52;;;6.05;;
37411;SDS011;23278;52.110;6.050;2023-10-09T09:34:46;8.63;;;4.63;;
37411;SDS011;23278;52.110;6.050;2023-10-09T09:37:20;7.30;;;4.63;;
37411;SDS011;23278;52.110;6.050;2023-10-09T09:39:47;4.47;;;3.88;;
37411;SDS011;23278;52.110;6.050;2023-10-09T09:42:18;10.57;;;5.72;;
37411;SDS011;23278;52.110;6.050;2023-10-09T09:44:51;7.93;;;4.63;;
37411;SDS011;23278;52.110;6.050;2023-10-09T09:47:17;6.32;;;4.60;;
37411;SDS011;23278;52.110;6.050;2023-10-09T09:49:53;6.50;;;4.03;;
37411;SDS011;23278;52.110;6.050;2023-10-09T09:52:28;9.13;;;3.72;;
37411;SDS011;23278;52.110;6.050;2023-10-09T09:54:54;8.18;;;3.88;;
37411;SDS011;23278;52.110;6.050;2023-10-09T09:57:20;8.38;;;4.32;;
37411;SDS011;23278;52.110;6.050;2023-10-09T09:59:51;5.32;;;3.75;;
37411;SDS011;23278;52.110;6.050;2023-10-09T10:02:30;14.70;;;4.78;;
37411;SDS011;23278;52.110;6.050;2023-10-09T10:05:02;6.63;;;3.90;;
37411;SDS011;23278;52.110;6.050;2023-10-09T10:07:32;7.57;;;4.47;;
37411;SDS011;23278;52.110;6.050;2023-10-09T10:10:33;9.52;;;4.38;;
37411;SDS011;23278;52.110;6.050;2023-10-09T10:13:03;7.43;;;3.75;;
37411;SDS011;23278;52.110;6.050;2023-10-09T10:18:23;12.02;;;5.38;;
37411;SDS011;23278;52.110;6.050;2023-10-09T10:23:40;7.82;;;4.43;;
37411;SDS011;23278;52.110;6.050;2023-10-09T10:26:22;7.93;;;5.15;;
37411;SDS011;23278;52.110;6.050;2023-10-09T10:31:51;6.03;;;3.78;;
37411;SDS011;23278;52.110;6.050;2023-10-09T10:34:20;11.85;;;4.53;;
37411;SDS011;23278;52.110;6.050;2023-10-09T10:36:49;6.20;;;4.15;;
37411;SDS011;23278;52.110;6.050;2023-10-09T10:39:24;7.70;;;4.32;;
37411;SDS011;23278;52.110;6.050;2023-10-09T10:42:08;6.60;;;4.20;;
37411;SDS011;23278;52.110;6.050;2023-10-09T10:44:40;9.27;;;4.25;;
37411;SDS011;23278;52.110;6.050;2023-10-09T10:47:11;10.75;;;4.95;;
37411;SDS011;23278;52.110;6.050;2023-10-09T10:49:52;7.03;;;3.63;;
37411;SDS011;23278;52.110;6.050;2023-10-09T10:52:45;8.13;;;4.18;;
37411;SDS011;23278;52.110;6.050;2023-10-09T10:55:22;8.90;;;5.18;;
37411;SDS011;23278;52.110;6.050;2023-10-09T10:58:00;7.93;;;3.92;;
37411;SDS011;23278;52.110;6.050;2023-10-09T11:00:35;6.57;;;3.83;;
37411;SDS011;23278;52.110;6.050;2023-10-09T11:03:20;11.32;;;5.78;;
37411;SDS011;23278;52.110;6.050;2023-10-09T11:06:01;7.95;;;3.75;;
37411;SDS011;23278;52.110;6.050;2023-10-09T11:08:49;8.65;;;3.95;;
37411;SDS011;23278;52.110;6.050;2023-10-09T11:11:24;9.48;;;3.67;;
37411;SDS011;23278;52.110;6.050;2023-10-09T11:14:07;9.57;;;3.92;;
37411;SDS011;23278;52.110;6.050;2023-10-09T11:16:35;6.70;;;3.50;;
37411;SDS011;23278;52.110;6.050;2023-10-09T11:19:11;8.68;;;4.28;;
37411;SDS011;23278;52.110;6.050;2023-10-09T11:21:49;11.27;;;5.32;;
37411;SDS011;23278;52.110;6.050;2023-10-09T11:24:24;6.70;;;3.60;;
37411;SDS011;23278;52.110;6.050;2023-10-09T11:26:52;11.85;;;5.13;;
37411;SDS011;23278;52.110;6.050;2023-10-09T11:29:21;7.22;;;3.60;;
37411;SDS011;23278;52.110;6.050;2023-10-09T11:32:01;6.63;;;3.30;;
37411;SDS011;23278;52.110;6.050;2023-10-09T11:34:30;8.77;;;3.20;;
37411;SDS011;23278;52.110;6.050;2023-10-09T11:37:01;8.25;;;4.25;;
37411;SDS011;23278;52.110;6.050;2023-10-09T11:42:03;8.32;;;4.38;;
37411;SDS011;23278;52.110;6.050;2023-10-09T11:44:38;8.07;;;3.30;;
37411;SDS011;23278;52.110;6.050;2023-10-09T11:47:06;5.95;;;3.22;;
37411;SDS011;23278;52.110;6.050;2023-10-09T11:50:03;12.55;;;4.43;;
37411;SDS011;23278;52.110;6.050;2023-10-09T11:52:32;7.63;;;3.50;;
37411;SDS011;23278;52.110;6.050;2023-10-09T11:55:04;6.78;;;3.67;;
37411;SDS011;23278;52.110;6.050;2023-10-09T11:57:41;8.53;;;3.43;;
37411;SDS011;23278;52.110;6.050;2023-10-09T12:00:08;11.05;;;3.70;;
37411;SDS011;23278;52.110;6.050;2023-10-09T12:02:50;5.90;;;3.28;;
37411;SDS011;23278;52.110;6.050;2023-10-09T12:05:17;6.25;;;2.88;;
37411;SDS011;23278;52.110;6.050;2023-10-09T12:07:47;5.45;;;2.85;;
37411;SDS011;23278;52.110;6.050;2023-10-09T12:10:23;6.45;;;3.50;;
37411;SDS011;23278;52.110;6.050;2023-10-09T12:12:54;8.38;;;3.83;;
37411;SDS011;23278;52.110;6.050;2023-10-09T12:15:24;7.68;;;2.90;;
37411;SDS011;23278;52.110;6.050;2023-10-09T12:17:50;5.75;;;2.75;;
37411;SDS011;23278;52.110;6.050;2023-10-09T12:20:18;9.85;;;3.60;;
37411;SDS011;23278;52.110;6.050;2023-10-09T12:22:59;4.57;;;2.10;;
37411;SDS011;23278;52.110;6.050;2023-10-09T12:25:30;6.15;;;3.60;;
37411;SDS011;23278;52.110;6.050;2023-10-09T12:27:58;5.70;;;3.47;;
37411;SDS011;23278;52.110;6.050;2023-10-09T12:30:26;6.00;;;2.90;;
37411;SDS011;23278;52.110;6.050;2023-10-09T12:32:56;6.88;;;2.13;;
37411;SDS011;23278;52.110;6.050;2023-10-09T12:35:26;6.65;;;3.83;;
37411;SDS011;23278;52.110;6.050;2023-10-09T12:37:53;6.80;;;3.42;;
37411;SDS011;23278;52.110;6.050;2023-10-09T12:40:22;8.25;;;3.10;;
37411;SDS011;23278;52.110;6.050;2023-10-09T12:42:55;4.32;;;2.28;;
37411;SDS011;23278;52.110;6.050;2023-10-09T12:45:27;3.67;;;2.53;;
37411;SDS011;23278;52.110;6.050;2023-10-09T12:48:00;5.53;;;2.80;;
37411;SDS011;23278;52.110;6.050;2023-10-09T12:50:37;4.80;;;2.17;;
37411;SDS011;23278;52.110;6.050;2023-10-09T12:53:07;7.03;;;2.95;;
37411;SDS011;23278;52.110;6.050;2023-10-09T12:55:40;6.97;;;3.78;;
37411;SDS011;23278;52.110;6.050;2023-10-09T12:58:09;7.43;;;3.35;;
37411;SDS011;23278;52.110;6.050;2023-10-09T13:00:41;9.52;;;2.83;;
37411;SDS011;23278;52.110;6.050;2023-10-09T13:03:14;9.20;;;2.92;;
37411;SDS011;23278;52.110;6.050;2023-10-09T13:05:46;5.40;;;2.55;;
37411;SDS011;23278;52.110;6.050;2023-10-09T13:08:20;5.22;;;3.08;;
37411;SDS011;23278;52.110;6.050;2023-10-09T13:11:05;4.35;;;2.30;;
37411;SDS011;23278;52.110;6.050;2023-10-09T13:13:36;5.95;;;3.22;;
37411;SDS011;23278;52.110;6.050;2023-10-09T13:16:10;7.80;;;3.55;;
37411;SDS011;23278;52.110;6.050;2023-10-09T13:18:53;6.50;;;2.92;;
37411;SDS011;23278;52.110;6.050;2023-10-09T13:21:21;5.28;;;2.70;;
37411;SDS011;23278;52.110;6.050;2023-10-09T13:23:49;4.72;;;2.67;;
37411;SDS011;23278;52.110;6.050;2023-10-09T13:26:19;5.72;;;2.92;;
37411;SDS011;23278;52.110;6.050;2023-10-09T13:28:56;6.00;;;2.67;;
37411;SDS011;23278;52.110;6.050;2023-10-09T13:31:23;6.53;;;2.28;;
37411;SDS011;23278;52.110;6.050;2023-10-09T13:33:57;5.03;;;2.53;;
37411;SDS011;23278;52.110;6.050;2023-10-09T13:36:27;8.65;;;2.95;;
37411;SDS011;23278;52.110;6.050;2023-10-09T13:39:00;5.10;;;2.80;;
37411;SDS011;23278;52.110;6.050;2023-10-09T13:41:47;6.40;;;2.45;;
37411;SDS011;23278;52.110;6.050;2023-10-09T13:44:14;6.38;;;2.53;;
37411;SDS011;23278;52.110;6.050;2023-10-09T13:46:40;6.07;;;2.33;;
37411;SDS011;23278;52.110;6.050;2023-10-09T13:49:10;7.05;;;2.45;;
37411;SDS011;23278;52.110;6.050;2023-10-09T13:51:39;7.63;;;2.10;;
37411;SDS011;23278;52.110;6.050;2023-10-09T13:54:13;8.65;;;2.47;;
37411;SDS011;23278;52.110;6.050;2023-10-09T13:57:14;3.15;;;1.77;;
37411;SDS011;23278;52.110;6.050;2023-10-09T13:59:41;4.40;;;2.00;;
37411;SDS011;23278;52.110;6.050;2023-10-09T14:02:09;3.15;;;1.80;;
37411;SDS011;23278;52.110;6.050;2023-10-09T14:04:35;7.30;;;2.83;;
37411;SDS011;23278;52.110;6.050;2023-10-09T14:07:01;5.68;;;2.03;;
37411;SDS011;23278;52.110;6.050;2023-10-09T14:09:31;6.15;;;2.13;;
37411;SDS011;23278;52.110;6.050;2023-10-09T14:11:57;4.80;;;2.40;;
37411;SDS011;23278;52.110;6.050;2023-10-09T14:14:35;3.92;;;1.90;;
37411;SDS011;23278;52.110;6.050;2023-10-09T14:19:47;4.68;;;2.40;;
37411;SDS011;23278;52.110;6.050;2023-10-09T14:22:13;5.40;;;2.33;;
37411;SDS011;23278;52.110;6.050;2023-10-09T14:24:44;5.80;;;2.97;;
37411;SDS011;23278;52.110;6.050;2023-10-09T14:27:12;4.35;;;2.20;;
37411;SDS011;23278;52.110;6.050;2023-10-09T14:29:44;6.25;;;2.15;;
37411;SDS011;23278;52.110;6.050;2023-10-09T14:32:13;5.80;;;2.08;;
37411;SDS011;23278;52.110;6.050;2023-10-09T14:34:40;6.82;;;2.47;;
37411;SDS011;23278;52.110;6.050;2023-10-09T14:37:16;3.92;;;2.20;;
37411;SDS011;23278;52.110;6.050;2023-10-09T14:39:44;6.75;;;1.88;;
37411;SDS011;23278;52.110;6.050;2023-10-09T14:42:14;5.03;;;1.85;;
37411;SDS011;23278;52.110;6.050;2023-10-09T14:44:40;5.05;;;2.55;;
37411;SDS011;23278;52.110;6.050;2023-10-09T14:47:07;4.15;;;2.50;;
37411;SDS011;23278;52.110;6.050;2023-10-09T14:49:34;5.40;;;2.47;;
37411;SDS011;23278;52.110;6.050;2023-10-09T14:52:12;6.38;;;2.83;;
37411;SDS011;23278;52.110;6.050;2023-10-09T14:54:42;5.25;;;2.15;;
37411;SDS011;23278;52.110;6.050;2023-10-09T14:57:10;6.18;;;2.38;;
37411;SDS011;23278;52.110;6.050;2023-10-09T14:59:37;5.28;;;2.08;;
37411;SDS011;23278;52.110;6.050;2023-10-09T15:02:03;5.93;;;2.83;;
37411;SDS011;23278;52.110;6.050;2023-10-09T15:04:30;5.07;;;2.20;;
37411;SDS011;23278;52.110;6.050;2023-10-09T15:06:57;8.05;;;2.30;;
37411;SDS011;23278;52.110;6.050;2023-10-09T15:09:23;4.45;;;2.03;;
37411;SDS011;23278;52.110;6.050;2023-10-09T15:11:53;7.67;;;2.97;;
37411;SDS011;23278;52.110;6.050;2023-10-09T15:14:20;6.78;;;1.67;;
37411;SDS011;23278;52.110;6.050;2023-10-09T15:16:46;6.25;;;2.33;;
37411;SDS011;23278;52.110;6.050;2023-10-09T15:19:13;7.20;;;2.50;;
37411;SDS011;23278;52.110;6.050;2023-10-09T15:21:39;6.80;;;2.83;;
37411;SDS011;23278;52.110;6.050;2023-10-09T15:24:12;7.50;;;2.92;;
37411;SDS011;23278;52.110;6.050;2023-10-09T15:26:44;6.20;;;1.77;;
37411;SDS011;23278;52.110;6.050;2023-10-09T15:29:23;8.20;;;2.85;;
37411;SDS011;23278;52.110;6.050;2023-10-09T15:32:02;8.15;;;2.90;;
37411;SDS011;23278;52.110;6.050;2023-10-09T15:34:39;6.38;;;3.67;;
37411;SDS011;23278;52.110;6.050;2023-10-09T15:37:06;10.57;;;4.00;;
37411;SDS011;23278;52.110;6.050;2023-10-09T15:39:35;5.95;;;3.67;;
37411;SDS011;23278;52.110;6.050;2023-10-09T15:42:01;9.45;;;4.18;;
37411;SDS011;23278;52.110;6.050;2023-10-09T15:44:32;9.40;;;4.07;;
37411;SDS011;23278;52.110;6.050;2023-10-09T15:47:02;7.95;;;3.47;;
37411;SDS011;23278;52.110;6.050;2023-10-09T15:49:29;8.68;;;3.83;;
37411;SDS011;23278;52.110;6.050;2023-10-09T15:51:59;8.90;;;4.05;;
37411;SDS011;23278;52.110;6.050;2023-10-09T15:54:26;7.68;;;3.65;;